< < Back
Terminal Aerodrome Forecast


Current Version              Previous Versions:   1  2  3  4  5  6  7  8  9  

Terminal Aerodrome Forecast

208
FTUS42 KFFC 310158 AAA
TAFAHN
TAF AMD
KAHN 310158Z 3102/3124 04004KT P6SM BKN010
     FM311000 08003KT 2SM BR BKN006
     FM311400 08004KT 4SM BR BKN008
     FM311600 07005KT P6SM BKN015
     FM311900 06006KT P6SM SCT025 SCT250=



Latest METAR

800
SAUS70 KWBC 310200
MTRAHN
METAR KAHN 310151Z AUTO 03003KT 10SM OVC010 20/19 A3014 RMK AO2 SLP201
T02000189


USA.gov is the U.S. government's official web portal to all federal, state and local government web resources and services.